Time;durP1;ratioP1;P1;durP2;ratioP2;P2;SDS_P1;SDS_P2;PMS_P1;PMS_P2;Temp;Humidity;BMP_temperature;BMP_pressure;BME280_temperature;BME280_humidity;BME280_pressure;Samples;Min_cycle;Max_cycle;Signal;HPM_P1;HPM_P2
2023/06/20 00:00:58;;;;;;;5.15;2.80;;;;;;;-145.69;nan;51996.84;5074472;28;20257;-88
2023/06/20 00:03:25;;;;;;;7.05;3.42;;;;;;;-145.69;nan;51984.97;5073711;28;20219;-86
2023/06/20 00:05:51;;;;;;;6.47;3.00;;;;;;;-145.69;nan;52008.72;5072762;28;20202;-77
2023/06/20 00:08:19;;;;;;;9.43;3.28;;;;;;;-145.69;nan;52004.75;5072492;28;20278;-80
2023/06/20 00:10:45;;;;;;;7.22;4.10;;;;;;;-145.69;nan;52032.47;5073057;28;20203;-81
2023/06/20 00:13:12;;;;;;;14.35;4.35;;;;;;;-145.69;nan;52040.41;5073009;28;20256;-82
2023/06/20 00:15:41;;;;;;;8.82;5.25;;;;;;;-145.69;nan;52022.59;5073017;28;20201;-83
2023/06/20 00:18:07;;;;;;;11.68;5.20;;;;;;;-145.69;nan;52044.38;5072610;28;20202;-82
2023/06/20 00:20:35;;;;;;;9.30;5.18;;;;;;;-145.69;nan;52046.34;5072462;28;20198;-82
2023/06/20 00:23:02;;;;;;;7.47;5.40;;;;;;;-145.69;nan;52052.28;5072702;28;20214;-82
2023/06/20 00:25:30;;;;;;;11.07;5.97;;;;;;;-145.69;nan;52034.47;5072560;28;20226;-81
2023/06/20 00:27:56;;;;;;;9.70;6.80;;;;;;;-145.69;nan;52014.66;5072492;28;20206;-81
2023/06/20 00:30:23;;;;;;;12.13;6.35;;;;;;;-145.69;nan;52066.16;5072630;28;20195;-80
2023/06/20 00:32:49;;;;;;;14.18;6.72;;;;;;;-145.69;nan;52038.44;5072406;28;20649;-81
2023/06/20 00:35:16;;;;;;;15.13;7.53;;;;;;;-145.69;nan;52024.56;5072292;28;20201;-82
2023/06/20 00:37:42;;;;;;;15.20;7.15;;;;;;;-145.69;nan;52074.06;5072229;28;20202;-81
2023/06/20 00:40:09;;;;;;;12.02;7.40;;;;;;;-145.69;nan;52064.16;5072020;28;20194;-83
2023/06/20 00:42:37;;;;;;;14.82;7.85;;;;;;;-145.69;nan;52060.22;5072236;28;20199;-81
2023/06/20 00:45:25;;;;;;;11.95;7.68;;;;;;;-145.69;nan;52099.81;5072191;28;20236;-81
2023/06/20 00:47:52;;;;;;;11.95;6.90;;;;;;;-145.69;nan;52083.97;5072242;28;20223;-81
2023/06/20 00:50:19;;;;;;;9.93;5.35;;;;;;;-145.69;nan;52048.31;5072336;28;20201;-80
2023/06/20 00:52:47;;;;;;;9.18;4.80;;;;;;;-145.69;nan;52089.91;5072869;28;20597;-80
2023/06/20 00:55:13;;;;;;;5.32;3.20;;;;;;;-145.69;nan;52078.03;5082375;28;20247;-80
2023/06/20 00:57:43;;;;;;;7.72;4.20;;;;;;;-145.69;nan;52066.16;5095988;28;20199;-79
2023/06/20 01:00:12;;;;;;;9.05;4.95;;;;;;;-145.69;nan;52060.22;5095804;28;20202;-80
2023/06/20 01:02:38;;;;;;;11.10;5.13;;;;;;;-145.69;nan;52064.16;5060456;28;20250;-79
2023/06/20 01:05:05;;;;;;;11.50;5.28;;;;;;;-145.69;nan;52040.41;5054659;28;20200;-79
2023/06/20 01:07:38;;;;;;;8.48;3.58;;;;;;;-145.69;nan;52085.94;5068110;28;20276;-80
2023/06/20 01:10:12;;;;;;;9.77;4.28;;;;;;;-145.69;nan;52095.84;5075416;28;20240;-80
2023/06/20 01:12:50;;;;;;;10.32;5.85;;;;;;;-145.69;nan;52087.94;5075205;28;20244;-80
2023/06/20 01:15:26;;;;;;;8.77;5.10;;;;;;;-145.69;nan;52083.97;5074942;28;20221;-80
2023/06/20 01:18:02;;;;;;;8.18;4.15;;;;;;;-145.69;nan;52087.94;5075262;28;20198;-79
2023/06/20 01:20:34;;;;;;;6.28;3.28;;;;;;;-145.69;nan;52072.09;5075351;28;20209;-80
2023/06/20 01:23:04;;;;;;;7.85;2.83;;;;;;;-145.69;nan;52095.84;5075126;28;20268;-80
2023/06/20 01:25:39;;;;;;;5.22;2.78;;;;;;;-145.69;nan;52064.16;5075323;28;20203;-80
2023/06/20 01:28:10;;;;;;;7.78;2.50;;;;;;;-145.69;nan;52064.16;5075230;28;20202;-80
2023/06/20 01:30:46;;;;;;;5.50;2.70;;;;;;;-145.69;nan;52082.00;5075259;28;20205;-79
2023/06/20 01:33:15;;;;;;;8.27;2.70;;;;;;;-145.69;nan;52080.00;5074838;28;20202;-78
2023/06/20 01:35:44;;;;;;;6.03;2.40;;;;;;;-145.69;nan;52091.88;5074718;28;20203;-79
2023/06/20 01:38:15;;;;;;;7.28;2.03;;;;;;;-145.69;nan;52103.78;5074769;28;20199;-79
2023/06/20 01:40:47;;;;;;;7.13;2.65;;;;;;;-145.69;nan;52117.63;5074880;28;20264;-80
2023/06/20 01:43:15;;;;;;;3.97;2.17;;;;;;;-145.69;nan;52080.00;5074760;28;20600;-79
2023/06/20 01:45:45;;;;;;;9.00;2.30;;;;;;;-145.69;nan;52080.00;5074742;28;20705;-80
2023/06/20 01:48:13;;;;;;;3.88;2.30;;;;;;;-145.69;nan;52121.59;5074618;28;20597;-80
2023/06/20 01:50:41;;;;;;;6.20;1.77;;;;;;;-145.69;nan;52082.00;5074853;28;20202;-80
2023/06/20 01:53:08;;;;;;;4.38;2.15;;;;;;;-145.69;nan;52099.81;5074511;28;20653;-79
2023/06/20 01:55:41;;;;;;;6.32;2.83;;;;;;;-145.69;nan;52087.94;5074521;28;20257;-79
2023/06/20 01:58:08;;;;;;;6.38;3.05;;;;;;;-145.69;nan;52099.81;5074177;28;20713;-79
2023/06/20 02:00:36;;;;;;;6.97;3.03;;;;;;;-145.69;nan;52103.78;5068486;28;20199;-79
2023/06/20 02:03:04;;;;;;;7.63;3.35;;;;;;;-145.69;nan;52064.16;5074392;28;20195;-80
2023/06/20 02:05:32;;;;;;;5.22;2.78;;;;;;;-145.69;nan;52091.88;5073082;28;20202;-80
2023/06/20 02:08:01;;;;;;;10.05;3.20;;;;;;;-145.69;nan;52107.72;5073870;28;20286;-81
2023/06/20 02:10:29;;;;;;;10.85;3.63;;;;;;;-145.69;nan;52107.72;5074246;28;20194;-80
2023/06/20 02:12:58;;;;;;;6.65;2.80;;;;;;;-145.69;nan;52115.66;5073898;28;20199;-81
2023/06/20 02:15:26;;;;;;;11.48;3.55;;;;;;;-145.69;nan;52111.69;5074057;28;20693;-80
2023/06/20 02:17:54;;;;;;;7.35;3.20;;;;;;;-145.69;nan;52080.00;5074317;28;20203;-80
2023/06/20 02:20:20;;;;;;;9.95;3.35;;;;;;;-145.69;nan;52111.69;5073945;28;20604;-80
2023/06/20 02:22:48;;;;;;;4.25;3.17;;;;;;;-145.69;nan;52119.63;5074094;28;20260;-81
2023/06/20 02:25:21;;;;;;;6.28;3.33;;;;;;;-145.69;nan;52099.81;5073830;28;20206;-81
2023/06/20 02:27:48;;;;;;;6.70;3.65;;;;;;;-145.69;nan;52111.69;5074296;28;20206;-80
2023/06/20 02:30:18;;;;;;;3.85;2.70;;;;;;;-145.69;nan;52115.66;5073644;28;20256;-81
2023/06/20 02:32:46;;;;;;;4.90;2.95;;;;;;;-145.69;nan;52099.81;5073994;28;20203;-81
2023/06/20 02:35:14;;;;;;;10.90;3.25;;;;;;;-145.69;nan;52099.81;5073743;28;20231;-81
2023/06/20 02:37:42;;;;;;;6.43;2.60;;;;;;;-145.69;nan;52099.81;5073817;28;20218;-81
2023/06/20 02:40:10;;;;;;;7.22;3.00;;;;;;;-145.69;nan;52119.63;5073556;28;20658;-81
2023/06/20 02:42:37;;;;;;;7.38;2.95;;;;;;;-145.69;nan;52115.66;5073971;28;20199;-80
2023/06/20 02:45:04;;;;;;;8.00;3.00;;;;;;;-145.69;nan;52072.09;5073716;28;20195;-82
2023/06/20 02:47:40;;;;;;;4.60;2.95;;;;;;;-145.69;nan;52103.78;5073603;28;20206;-80
2023/06/20 02:50:15;;;;;;;5.80;2.47;;;;;;;-145.69;nan;52103.78;5073303;28;20199;-79
2023/06/20 02:52:48;;;;;;;5.30;2.35;;;;;;;-145.69;nan;52115.66;5073295;28;20199;-81
2023/06/20 02:55:22;;;;;;;3.25;2.13;;;;;;;-145.69;nan;52076.03;5073617;28;20222;-81
2023/06/20 02:57:55;;;;;;;6.53;3.33;;;;;;;-145.69;nan;52097.84;5073914;28;20527;-83
2023/06/20 03:00:23;;;;;;;7.88;2.85;;;;;;;-145.69;nan;52103.78;5073010;28;20561;-80
2023/06/20 03:02:59;;;;;;;10.90;3.13;;;;;;;-145.69;nan;52115.66;5073391;28;20199;-79
2023/06/20 03:05:29;;;;;;;7.85;3.05;;;;;;;-145.69;nan;52135.47;5073482;28;20304;-82
2023/06/20 03:07:58;;;;;;;9.18;3.15;;;;;;;-145.69;nan;52099.81;5073453;28;20204;-82
2023/06/20 03:10:25;;;;;;;5.63;3.08;;;;;;;-145.69;nan;52107.72;5072604;28;20199;-80
2023/06/20 03:12:51;;;;;;;5.43;2.95;;;;;;;-145.69;nan;52105.75;5055276;28;20199;-80
2023/06/20 03:15:18;;;;;;;9.25;2.60;;;;;;;-145.69;nan;52091.88;5052824;28;20281;-81
2023/06/20 03:17:44;;;;;;;6.53;2.55;;;;;;;-145.69;nan;52087.94;5053035;28;20344;-81
2023/06/20 03:20:13;;;;;;;7.43;2.90;;;;;;;-145.69;nan;52111.69;5053459;28;20199;-81
2023/06/20 03:22:39;;;;;;;7.50;2.58;;;;;;;-145.69;nan;52105.75;5053284;28;20210;-81
2023/06/20 03:25:06;;;;;;;8.38;3.00;;;;;;;-145.69;nan;52091.88;5053349;28;20195;-81
2023/06/20 03:27:33;;;;;;;6.03;2.72;;;;;;;-145.69;nan;52091.88;5053152;28;20204;-82
2023/06/20 03:30:00;;;;;;;7.85;2.55;;;;;;;-145.69;nan;52119.63;5061706;28;20256;-82
2023/06/20 03:32:27;;;;;;;10.70;3.20;;;;;;;-145.69;nan;52127.53;5073252;28;20199;-82
2023/06/20 03:34:53;;;;;;;8.52;3.10;;;;;;;-145.69;nan;52145.34;5073022;28;20226;-83
2023/06/20 03:37:21;;;;;;;8.68;3.17;;;;;;;-145.69;nan;52151.28;5072953;28;20229;-82
2023/06/20 03:39:48;;;;;;;5.95;3.17;;;;;;;-145.69;nan;52101.78;5072895;28;20194;-82
2023/06/20 03:42:14;;;;;;;6.00;3.05;;;;;;;-145.69;nan;52099.81;5073152;28;20210;-81
2023/06/20 03:44:41;;;;;;;5.85;3.30;;;;;;;-145.69;nan;52119.63;5072782;28;20199;-81
2023/06/20 03:47:07;;;;;;;7.63;3.65;;;;;;;-145.69;nan;52137.44;5073075;28;20199;-81
2023/06/20 03:49:34;;;;;;;15.43;3.67;;;;;;;-145.69;nan;52115.66;5072419;28;20226;-83
2023/06/20 03:52:01;;;;;;;6.90;3.92;;;;;;;-145.69;nan;52133.47;5073109;28;20202;-81
2023/06/20 03:54:29;;;;;;;7.53;3.65;;;;;;;-145.69;nan;52123.56;5072623;28;20260;-83
2023/06/20 03:56:55;;;;;;;8.48;4.05;;;;;;;-145.69;nan;52155.25;5072520;28;20203;-83
2023/06/20 03:59:22;;;;;;;6.65;4.15;;;;;;;-145.69;nan;52111.69;5072716;28;20195;-83
2023/06/20 04:01:50;;;;;;;6.72;4.18;;;;;;;-145.69;nan;52143.38;5073041;28;20210;-83
2023/06/20 04:04:16;;;;;;;11.55;4.63;;;;;;;-145.69;nan;52119.63;5072703;28;20199;-82
2023/06/20 04:06:42;;;;;;;11.45;4.68;;;;;;;-145.69;nan;52129.50;5072939;28;20202;-82
2023/06/20 04:09:09;;;;;;;9.48;4.72;;;;;;;-145.69;nan;52139.41;5072413;28;20194;-82
2023/06/20 04:11:37;;;;;;;11.65;5.03;;;;;;;-145.69;nan;52131.50;5072692;28;20557;-82
2023/06/20 04:14:03;;;;;;;7.18;4.40;;;;;;;-145.69;nan;52131.50;5072372;28;20199;-82
2023/06/20 04:16:30;;;;;;;10.93;4.90;;;;;;;-145.69;nan;52105.75;5072793;28;20260;-82
2023/06/20 04:18:56;;;;;;;10.77;5.18;;;;;;;-145.69;nan;52143.38;5072664;28;20277;-81
2023/06/20 04:21:23;;;;;;;9.27;5.60;;;;;;;-145.69;nan;52109.72;5072365;28;20202;-82
2023/06/20 04:23:49;;;;;;;8.50;5.28;;;;;;;-145.69;nan;52151.28;5072323;28;20562;-82
2023/06/20 04:26:16;;;;;;;8.45;5.57;;;;;;;-145.69;nan;52125.56;5072395;28;20206;-82
2023/06/20 04:28:44;;;;;;;9.90;5.30;;;;;;;-145.69;nan;52131.50;5074880;28;20222;-82
2023/06/20 04:31:11;;;;;;;8.13;5.35;;;;;;;-145.69;nan;52145.34;5076348;28;20195;-83
2023/06/20 04:33:43;;;;;;;9.07;5.25;;;;;;;-145.69;nan;52131.50;5076395;28;20195;-83
2023/06/20 04:36:13;;;;;;;7.65;4.97;;;;;;;-145.69;nan;52157.25;5076201;28;20245;-82
2023/06/20 04:38:39;;;;;;;8.13;4.90;;;;;;;-145.69;nan;52135.47;5076007;28;20216;-82
2023/06/20 04:41:06;;;;;;;9.52;4.35;;;;;;;-145.69;nan;52131.50;5075950;28;20203;-84
2023/06/20 04:43:32;;;;;;;11.13;4.95;;;;;;;-145.69;nan;52117.63;5076189;28;20195;-84
2023/06/20 04:46:00;;;;;;;8.95;5.32;;;;;;;-145.69;nan;52111.69;5076116;28;20203;-83
2023/06/20 04:48:28;;;;;;;7.80;4.00;;;;;;;-145.69;nan;52103.78;5075981;28;20238;-83
2023/06/20 04:50:55;;;;;;;9.25;4.60;;;;;;;-145.69;nan;52111.69;5074699;28;20709;-83
2023/06/20 04:53:22;;;;;;;11.48;4.63;;;;;;;-145.69;nan;52125.56;5075443;28;20246;-83
2023/06/20 04:55:49;;;;;;;7.80;4.22;;;;;;;-145.69;nan;52137.44;5075855;28;20235;-83
2023/06/20 04:58:16;;;;;;;8.13;3.90;;;;;;;-145.69;nan;52097.84;5075657;28;20561;-83
2023/06/20 05:00:43;;;;;;;8.18;3.92;;;;;;;-145.69;nan;52113.66;5075648;28;20207;-83
2023/06/20 05:03:11;;;;;;;8.15;3.75;;;;;;;-145.69;nan;52093.88;5074375;28;20230;-81
2023/06/20 05:05:37;;;;;;;5.90;3.97;;;;;;;-145.69;nan;52080.00;5075614;28;20252;-83
2023/06/20 05:08:04;;;;;;;8.30;3.80;;;;;;;-145.69;nan;52099.81;5075579;28;20203;-83
2023/06/20 05:10:30;;;;;;;6.18;3.65;;;;;;;-145.69;nan;52093.88;5075744;28;20715;-83
2023/06/20 05:12:57;;;;;;;6.47;3.35;;;;;;;-145.69;nan;52113.66;5075681;28;20195;-83
2023/06/20 05:15:24;;;;;;;8.00;3.85;;;;;;;-145.69;nan;52103.78;5075298;28;20215;-83
2023/06/20 05:17:51;;;;;;;8.70;3.72;;;;;;;-145.69;nan;52083.97;5075296;28;20661;-82
2023/06/20 05:20:19;;;;;;;8.43;3.92;;;;;;;-145.69;nan;52087.94;5058796;28;20223;-82
2023/06/20 05:22:46;;;;;;;7.47;3.70;;;;;;;-145.69;nan;52099.81;5074298;28;20658;-83
2023/06/20 05:25:13;;;;;;;6.13;3.50;;;;;;;-145.69;nan;52095.84;5075519;28;20272;-83
2023/06/20 05:27:39;;;;;;;7.40;4.05;;;;;;;-145.69;nan;52064.16;5075260;28;20203;-83
2023/06/20 05:30:08;;;;;;;8.23;4.03;;;;;;;-145.69;nan;52117.63;5075138;28;20202;-81
2023/06/20 05:32:34;;;;;;;6.22;3.70;;;;;;;-145.69;nan;52103.78;5075031;28;20195;-81
2023/06/20 05:35:01;;;;;;;8.27;4.32;;;;;;;-145.69;nan;52091.88;5075055;28;20301;-81
2023/06/20 05:37:29;;;;;;;8.35;3.50;;;;;;;-145.69;nan;52109.72;5074999;28;20199;-82
2023/06/20 05:39:55;;;;;;;8.20;4.07;;;;;;;-145.69;nan;52056.25;5074597;28;20707;-82
2023/06/20 05:42:22;;;;;;;9.30;4.00;;;;;;;-145.69;nan;52060.22;5075017;28;20195;-83
2023/06/20 05:44:48;;;;;;;6.22;3.42;;;;;;;-145.69;nan;52044.38;5074799;28;20650;-82
2023/06/20 05:47:17;;;;;;;5.22;3.72;;;;;;;-145.69;nan;52040.41;5074687;28;20195;-83
2023/06/20 05:49:44;;;;;;;7.10;3.22;;;;;;;-145.69;nan;51981.00;5074564;28;20238;-84
2023/06/20 05:52:10;;;;;;;5.63;3.33;;;;;;;-145.69;nan;51977.03;5074630;28;20302;-82
2023/06/20 05:54:38;;;;;;;7.03;3.33;;;;;;;-145.69;nan;51973.06;5074574;28;20232;-84
2023/06/20 05:57:06;;;;;;;6.93;3.05;;;;;;;-145.69;nan;52002.78;5074654;28;20723;-83
2023/06/20 05:59:32;;;;;;;6.53;3.40;;;;;;;-145.69;nan;52036.44;5074587;28;20349;-84
2023/06/20 06:01:59;;;;;;;5.53;3.22;;;;;;;-145.69;nan;52026.53;5074500;28;20203;-84
2023/06/20 06:04:26;;;;;;;8.70;3.75;;;;;;;-145.69;nan;52004.75;5074150;28;20199;-82
2023/06/20 06:06:53;;;;;;;7.05;3.63;;;;;;;-145.69;nan;52024.56;5074555;28;20290;-82
2023/06/20 06:09:19;;;;;;;6.53;3.45;;;;;;;-145.69;nan;52000.81;5074568;28;20206;-82
2023/06/20 06:11:47;;;;;;;11.07;3.50;;;;;;;-145.69;nan;52026.53;5074504;28;20240;-83
2023/06/20 06:14:14;;;;;;;7.10;3.65;;;;;;;-145.69;nan;52004.75;5073262;28;20290;-84
2023/06/20 06:16:40;;;;;;;6.95;3.25;;;;;;;-145.69;nan;51984.97;5073911;28;20280;-83
2023/06/20 06:19:07;;;;;;;5.97;3.40;;;;;;;-145.69;nan;51977.03;5074116;28;20519;-83
2023/06/20 06:21:33;;;;;;;6.35;3.22;;;;;;;-145.69;nan;51982.97;5074321;28;20301;-83
2023/06/20 06:24:00;;;;;;;6.35;3.65;;;;;;;-145.69;nan;52002.78;5073677;28;20724;-83
2023/06/20 06:26:26;;;;;;;6.07;3.50;;;;;;;-145.69;nan;51973.06;5074092;28;20253;-83
2023/06/20 06:28:54;;;;;;;6.72;3.60;;;;;;;-145.69;nan;52000.81;5074214;28;20202;-83
2023/06/20 06:31:26;;;;;;;7.93;3.38;;;;;;;-145.69;nan;52018.63;5073814;28;20732;-83
2023/06/20 06:33:54;;;;;;;10.68;3.78;;;;;;;-145.69;nan;51998.81;5074116;28;20211;-82
2023/06/20 06:36:22;;;;;;;8.70;3.10;;;;;;;-145.69;nan;52020.59;5074027;28;20664;-83
2023/06/20 06:38:49;;;;;;;7.50;3.42;;;;;;;-145.69;nan;52020.59;5073901;28;20230;-83
2023/06/20 06:41:15;;;;;;;5.38;3.45;;;;;;;-145.69;nan;51988.91;5073503;28;20210;-83
2023/06/20 06:43:42;;;;;;;8.15;3.63;;;;;;;-145.69;nan;52002.78;5073097;28;20253;-82
2023/06/20 06:46:10;;;;;;;12.90;3.80;;;;;;;-145.69;nan;52028.53;5073247;28;20259;-84
2023/06/20 06:48:36;;;;;;;10.13;3.85;;;;;;;-145.69;nan;51955.25;5073241;28;20708;-83
2023/06/20 06:51:03;;;;;;;7.25;3.47;;;;;;;-145.69;nan;51990.91;5073521;28;20237;-84
2023/06/20 06:53:30;;;;;;;8.30;3.80;;;;;;;-145.69;nan;51981.00;5073457;28;20199;-84
2023/06/20 06:55:56;;;;;;;9.65;3.50;;;;;;;-145.69;nan;51992.88;5073014;28;20226;-84
2023/06/20 06:58:22;;;;;;;9.85;3.70;;;;;;;-145.69;nan;51967.13;5073446;28;20203;-85
2023/06/20 07:00:49;;;;;;;7.32;3.42;;;;;;;-145.69;nan;51973.06;5073838;28;20194;-84
2023/06/20 07:03:17;;;;;;;9.23;3.47;;;;;;;-145.69;nan;51957.25;5073520;28;20539;-84
2023/06/20 07:05:43;;;;;;;8.57;3.78;;;;;;;-145.69;nan;51945.34;5073456;28;20198;-83
2023/06/20 07:08:09;;;;;;;7.47;3.60;;;;;;;-145.69;nan;51955.25;5073394;28;20210;-83
2023/06/20 07:10:36;;;;;;;7.47;3.13;;;;;;;-145.69;nan;51941.41;5073437;28;20194;-85
2023/06/20 07:13:05;;;;;;;10.95;3.33;;;;;;;-145.69;nan;51945.34;5072604;28;20198;-83
2023/06/20 07:15:32;;;;;;;9.15;2.97;;;;;;;-145.69;nan;51953.28;5067253;28;20234;-84
2023/06/20 07:17:58;;;;;;;7.30;3.55;;;;;;;-145.69;nan;51939.41;5053382;28;20203;-83
2023/06/20 07:20:26;;;;;;;8.25;3.05;;;;;;;-145.69;nan;51957.25;5053285;28;20585;-82
2023/06/20 07:22:52;;;;;;;7.22;3.42;;;;;;;-145.69;nan;51911.69;5053614;28;20241;-82
2023/06/20 07:25:19;;;;;;;5.30;3.38;;;;;;;-145.69;nan;51945.34;5073154;28;20225;-82
2023/06/20 07:27:45;;;;;;;7.00;3.20;;;;;;;-145.69;nan;51941.41;5072982;28;20203;-82
2023/06/20 07:30:12;;;;;;;7.68;3.15;;;;;;;-145.69;nan;51951.28;5073263;28;20195;-82
2023/06/20 07:32:39;;;;;;;8.23;3.00;;;;;;;-145.69;nan;51937.44;5072817;28;20191;-82
2023/06/20 07:35:06;;;;;;;8.13;3.20;;;;;;;-145.69;nan;51927.53;5072879;28;20254;-82
2023/06/20 07:37:34;;;;;;;6.70;3.08;;;;;;;-145.69;nan;51917.63;5072959;28;20203;-79
2023/06/20 07:40:00;;;;;;;7.35;2.78;;;;;;;-145.69;nan;51911.69;5072726;28;20203;-81
2023/06/20 07:42:26;;;;;;;6.68;2.90;;;;;;;-145.69;nan;51961.19;5072561;28;20789;-82
2023/06/20 07:44:53;;;;;;;6.78;3.05;;;;;;;-145.69;nan;51933.47;5072720;28;20198;-82
2023/06/20 07:47:19;;;;;;;6.72;3.13;;;;;;;-145.69;nan;51923.56;5072631;28;20195;-82
2023/06/20 07:49:46;;;;;;;8.07;2.72;;;;;;;-145.69;nan;51927.53;5072603;28;20260;-81
2023/06/20 07:52:12;;;;;;;7.35;3.35;;;;;;;-145.69;nan;51901.78;5072875;28;20199;-82
2023/06/20 07:54:40;;;;;;;7.38;3.03;;;;;;;-145.69;nan;51937.44;5072379;28;20751;-81
2023/06/20 07:57:07;;;;;;;9.05;3.22;;;;;;;-145.69;nan;51927.53;5072315;28;20279;-81
2023/06/20 07:59:33;;;;;;;10.55;3.03;;;;;;;-145.69;nan;51953.28;5072418;28;20581;-81
2023/06/20 08:02:00;;;;;;;7.35;3.22;;;;;;;-145.69;nan;51913.69;5073456;28;20195;-82
2023/06/20 08:04:26;;;;;;;7.18;2.92;;;;;;;-145.69;nan;51911.69;5076518;28;20195;-82
2023/06/20 08:06:52;;;;;;;5.25;2.58;;;;;;;-145.69;nan;51933.47;5076911;28;20202;-82
2023/06/20 08:09:19;;;;;;;8.68;2.92;;;;;;;-145.69;nan;51933.47;5076685;28;20199;-81
2023/06/20 08:11:47;;;;;;;9.00;2.78;;;;;;;-145.69;nan;51901.78;5076831;28;20199;-82
2023/06/20 08:14:13;;;;;;;6.82;3.10;;;;;;;-145.69;nan;51887.94;5077229;28;20203;-79
2023/06/20 08:16:40;;;;;;;8.05;3.20;;;;;;;-145.69;nan;51925.56;5076442;28;20628;-81
2023/06/20 08:19:06;;;;;;;4.88;2.90;;;;;;;-145.69;nan;51913.69;5076355;28;20653;-80
2023/06/20 08:21:32;;;;;;;9.73;3.15;;;;;;;-145.69;nan;51921.59;5076157;28;20248;-81
2023/06/20 08:23:59;;;;;;;6.82;2.53;;;;;;;-145.69;nan;51909.72;5076291;28;20198;-79
2023/06/20 08:26:25;;;;;;;7.65;3.20;;;;;;;-145.69;nan;51895.84;5076435;28;20229;-81
2023/06/20 08:28:53;;;;;;;5.05;2.90;;;;;;;-145.69;nan;51897.84;5076532;28;20202;-80
2023/06/20 08:31:19;;;;;;;10.52;3.20;;;;;;;-145.69;nan;51909.72;5076021;28;20613;-81
2023/06/20 08:33:46;;;;;;;6.93;3.20;;;;;;;-145.69;nan;51893.88;5075860;28;20282;-81
2023/06/20 08:36:13;;;;;;;5.38;2.90;;;;;;;-145.69;nan;51897.84;5075530;28;20296;-81
2023/06/20 08:38:39;;;;;;;9.05;3.60;;;;;;;-145.69;nan;51903.78;5075703;28;20194;-80
2023/06/20 08:41:09;;;;;;;6.13;3.10;;;;;;;-145.69;nan;51889.91;5076280;28;20203;-82
2023/06/20 08:43:35;;;;;;;8.20;3.47;;;;;;;-145.69;nan;51878.03;5076160;28;20211;-82
2023/06/20 08:46:03;;;;;;;9.15;3.30;;;;;;;-145.69;nan;51905.75;5076123;28;20206;-82
2023/06/20 08:48:30;;;;;;;4.75;3.03;;;;;;;-145.69;nan;51893.88;5075801;28;20230;-81
2023/06/20 08:50:57;;;;;;;5.40;3.03;;;;;;;-145.69;nan;51885.94;5075880;28;20194;-81
2023/06/20 08:53:24;;;;;;;8.30;3.42;;;;;;;-145.69;nan;51874.06;5075842;28;20198;-82
2023/06/20 08:55:52;;;;;;;5.63;3.30;;;;;;;-145.69;nan;51909.72;5075616;28;20222;-85
2023/06/20 08:58:18;;;;;;;8.65;3.33;;;;;;;-145.69;nan;51899.81;5075788;28;20595;-84
2023/06/20 09:00:45;;;;;;;7.25;2.88;;;;;;;-145.69;nan;51901.78;5075856;28;20226;-85
2023/06/20 09:03:13;;;;;;;7.47;2.90;;;;;;;-145.69;nan;51870.13;5075923;28;20195;-84
2023/06/20 09:05:42;;;;;;;7.78;3.25;;;;;;;-145.69;nan;51880.00;5074211;28;20273;-84
2023/06/20 09:08:11;;;;;;;6.88;3.13;;;;;;;-145.69;nan;51882.00;5075968;28;20297;-85
2023/06/20 09:10:39;;;;;;;8.95;3.38;;;;;;;-145.69;nan;51840.41;5075648;28;20257;-85
2023/06/20 09:13:08;;;;;;;6.80;3.42;;;;;;;-145.69;nan;51846.34;5072088;28;20230;-84
2023/06/20 09:15:34;;;;;;;5.00;2.95;;;;;;;-145.69;nan;51878.03;5074962;28;20191;-86
2023/06/20 09:18:02;;;;;;;8.80;3.15;;;;;;;-145.69;nan;51846.34;5075486;28;20202;-86
2023/06/20 09:20:32;;;;;;;8.18;3.13;;;;;;;-145.69;nan;51850.31;5076064;28;20222;-86
2023/06/20 09:22:58;;;;;;;4.85;2.90;;;;;;;-145.69;nan;51838.44;5075732;28;20860;-86
2023/06/20 09:25:26;;;;;;;13.18;3.28;;;;;;;-145.69;nan;51818.63;5075793;28;20680;-86
2023/06/20 09:27:54;;;;;;;6.35;3.05;;;;;;;-145.69;nan;51840.41;5075880;28;20206;-85
2023/06/20 09:30:21;;;;;;;5.60;2.60;;;;;;;-145.69;nan;51834.47;5075352;28;20561;-85
2023/06/20 09:32:47;;;;;;;7.95;3.35;;;;;;;-145.69;nan;51830.50;5075542;28;20198;-86
2023/06/20 09:35:15;;;;;;;5.32;2.75;;;;;;;-145.69;nan;51872.09;5075452;28;20198;-85
2023/06/20 09:37:45;;;;;;;8.05;3.33;;;;;;;-145.69;nan;51848.34;5075477;28;20281;-85
2023/06/20 09:40:13;;;;;;;6.65;2.97;;;;;;;-145.69;nan;51830.50;5075202;28;20207;-83
2023/06/20 09:42:41;;;;;;;8.52;3.17;;;;;;;-145.69;nan;51816.66;5075709;28;20260;-85
2023/06/20 09:45:08;;;;;;;7.53;2.83;;;;;;;-145.69;nan;51840.41;5075259;28;20199;-87
2023/06/20 09:47:36;;;;;;;9.60;3.00;;;;;;;-145.69;nan;51812.69;5074918;28;20195;-87
2023/06/20 09:50:08;;;;;;;7.32;3.20;;;;;;;-145.69;nan;51822.59;5075408;28;20293;-84
2023/06/20 09:52:39;;;;;;;6.57;2.95;;;;;;;-145.69;nan;51820.59;5075413;28;20202;-87
2023/06/20 09:55:11;;;;;;;6.82;3.17;;;;;;;-145.69;nan;51800.81;5075655;28;20658;-88
2023/06/20 09:57:41;;;;;;;7.10;3.15;;;;;;;-145.69;nan;51826.56;5076010;28;20230;-90
2023/06/20 10:00:12;;;;;;;5.93;3.08;;;;;;;-145.69;nan;51840.41;5076162;28;20281;-89
2023/06/20 10:02:40;;;;;;;10.02;3.42;;;;;;;-145.69;nan;51812.69;5076144;28;20562;-89
2023/06/20 10:05:09;;;;;;;9.27;3.30;;;;;;;-145.69;nan;51846.34;5075393;28;20244;-87
2023/06/20 10:07:37;;;;;;;10.70;3.05;;;;;;;-145.69;nan;51828.53;5075277;28;20210;-87
2023/06/20 10:10:04;;;;;;;9.00;3.47;;;;;;;-145.69;nan;51854.28;5075093;28;20199;-88
2023/06/20 10:12:33;;;;;;;11.43;3.03;;;;;;;-145.69;nan;51820.59;5075496;28;20207;-89
2023/06/20 10:15:01;;;;;;;7.53;3.30;;;;;;;-145.69;nan;51830.50;5075601;28;20650;-88
2023/06/20 10:17:32;;;;;;;11.20;3.10;;;;;;;-145.69;nan;51800.81;5075078;28;20711;-89
2023/06/20 10:20:06;;;;;;;9.55;3.78;;;;;;;-145.69;nan;51826.56;5075231;28;20539;-88
2023/06/20 10:22:34;;;;;;;7.18;3.08;;;;;;;-145.69;nan;51798.81;5091595;28;20210;-87
2023/06/20 10:25:11;;;;;;;11.60;3.38;;;;;;;-145.69;nan;51834.47;5074995;28;20211;-89
2023/06/20 10:27:40;;;;;;;7.90;3.40;;;;;;;-145.69;nan;51808.72;5075076;28;20201;-87
2023/06/20 10:30:11;;;;;;;51.85;8.95;;;;;;;-145.69;nan;51792.88;5075188;28;20229;-86
2023/06/20 10:33:04;;;;;;;40.67;8.45;;;;;;;-145.69;nan;51828.53;5074772;28;20252;-86
2023/06/20 10:35:32;;;;;;;9.07;3.10;;;;;;;-145.69;nan;51802.78;5074987;28;20645;-85
2023/06/20 10:38:07;;;;;;;11.10;3.42;;;;;;;-145.69;nan;51826.56;5074312;28;20222;-84
2023/06/20 10:40:35;;;;;;;9.18;3.63;;;;;;;-145.69;nan;51826.56;5074440;28;20194;-86
2023/06/20 10:43:06;;;;;;;7.03;3.15;;;;;;;-145.69;nan;51818.63;5074600;28;20229;-87
2023/06/20 10:45:43;;;;;;;7.53;3.08;;;;;;;-145.69;nan;51781.00;5074678;28;20224;-87
2023/06/20 10:48:11;;;;;;;9.18;3.35;;;;;;;-145.69;nan;51788.94;5073782;28;20838;-84
2023/06/20 10:50:38;;;;;;;8.60;3.20;;;;;;;-145.69;nan;51796.84;5074455;28;20260;-85
2023/06/20 10:53:11;;;;;;;8.75;3.42;;;;;;;-145.69;nan;51777.03;5074494;28;20194;-85
2023/06/20 10:55:38;;;;;;;8.85;3.22;;;;;;;-145.69;nan;51779.03;5074193;28;20219;-87
2023/06/20 10:58:08;;;;;;;11.63;4.13;;;;;;;-145.69;nan;51790.91;5073331;28;20226;-86
2023/06/20 11:00:35;;;;;;;10.93;3.17;;;;;;;-145.69;nan;51800.81;5075204;28;20203;-87
2023/06/20 11:03:03;;;;;;;11.90;3.30;;;;;;;-145.69;nan;51798.81;5074844;28;20286;-88
2023/06/20 11:05:30;;;;;;;17.02;3.78;;;;;;;-145.69;nan;51755.25;5075250;28;20230;-87
2023/06/20 11:07:59;;;;;;;6.80;3.17;;;;;;;-145.69;nan;51767.16;5074207;28;20723;-87
2023/06/20 11:10:30;;;;;;;6.72;3.30;;;;;;;-145.69;nan;51784.97;5074373;28;20255;-85
2023/06/20 11:13:00;;;;;;;8.80;3.25;;;;;;;-145.69;nan;51761.22;5055697;28;20651;-87
2023/06/20 11:15:30;;;;;;;10.45;3.58;;;;;;;-145.69;nan;51773.09;5073534;28;20199;-87
2023/06/20 11:17:58;;;;;;;10.90;4.15;;;;;;;-145.69;nan;51763.19;5074115;28;20231;-89
2023/06/20 11:20:26;;;;;;;9.93;3.75;;;;;;;-145.69;nan;51769.13;5074355;28;20252;-86
2023/06/20 11:22:54;;;;;;;9.40;3.30;;;;;;;-145.69;nan;51786.94;5073860;28;20720;-86
2023/06/20 11:25:26;;;;;;;8.50;3.40;;;;;;;-145.69;nan;51769.13;5074449;28;20226;-88
2023/06/20 11:27:54;;;;;;;10.95;3.80;;;;;;;-145.69;nan;51771.09;5074350;28;20291;-89
2023/06/20 11:30:32;;;;;;;12.48;3.63;;;;;;;-145.69;nan;51781.00;5074374;28;20290;-91
2023/06/20 11:33:03;;;;;;;16.33;3.83;;;;;;;-145.69;nan;51755.25;5075023;28;20202;-89
2023/06/20 11:35:43;;;;;;;11.60;3.83;;;;;;;-145.69;nan;51747.34;5074605;28;20203;-89